Flight Track Log - Related Links

Times and Time Zones

All times are in EDT time to prevent confusion due to time zone crossing. See the ASQ4892 flight status page for this flight to view local times or setup timezone preferences in your user account.

Time Position Orientation Groundspeed Altitude Reporting Facility
EDT Latitude Longitude Course Direction KTS MPH feet Rate Location/Type
Fri 01:01:44 PM 42.8006 -73.8239 344° North 188 216 2,400  Level Boston Center
Fri 01:03:24 PM 42.8744 -73.8992 323° Northwest 219 252 6,500 2,311 Climbing Boston Center
Fri 01:04:25 PM 42.9200 -73.9400 327° Northwest 219 252 8,600 1,930 Climbing Boston Center
Fri 01:05:47 PM 42.9900 -74.0042 326° Northwest 241 277 11,100 1,521 Climbing Boston Center
Fri 01:06:47 PM 42.9756 -74.1286 261° West 240 276 12,200 1,450 Climbing Boston Center
Fri 01:07:47 PM 42.9094 -74.2317 229° Southwest 276 318 14,000 1,983 Climbing Boston Center
Fri 01:08:48 PM 42.8136 -74.2289 179° South 306 352 16,200 1,655 Climbing Boston Center
Fri 01:10:12 PM 42.6892 -74.1858 166° South 361 415 18,000 1,437 Climbing Boston Center
Fri 01:11:10 PM 42.5606 -74.1425 166° South 395 455 19,600 1,513 Climbing Boston Center
Fri 01:12:11 PM 42.4506 -74.1086 167° South 400 460 21,000 1,587 Climbing Boston Center
Fri 01:13:11 PM 42.3386 -74.0719 166° South 410 472 22,800 1,686 Climbing Boston Center
Fri 01:14:12 PM 42.2286 -74.0411 168° South 410 472 24,400 1,513 Climbing Boston Center
Fri 01:15:10 PM 42.1161 -74.0439 181° South 410 472 25,800 1,261 Climbing Boston Center
Fri 01:16:11 PM 42.0056 -74.0494 182° South 400 460 26,900 1,082 Climbing Boston Center
Fri 01:17:12 PM 41.8908 -74.0492 180° South 406 467 28,000 893 Climbing Boston Center
Fri 01:18:12 PM 41.8017 -74.0136 163° South 406 467 28,700 900 Climbing Boston Center
Fri 01:19:12 PM 41.6789 -73.9994 175° South 406 467 29,800 1,412 Climbing Boston Center
Fri 01:21:19 PM 41.4306 -74.0472 188° South 419 482 33,100 1,532 Climbing New York Center
Fri 01:22:20 PM 41.3303 -74.0644 187° South 392 451 34,600 1,160 Climbing New York Center
Fri 01:23:18 PM 41.2278 -74.0814 187° South 380 437 35,400 706 Climbing New York Center
Fri 01:24:19 PM 41.1325 -74.1319 202° Southwest 370 426 36,000 295 Climbing New York Center
Fri 01:25:20 PM 41.0589 -74.2328 226° Southwest 366 421 36,000  Level New York Center
Fri 01:26:20 PM 40.9867 -74.3472 230° Southwest 376 433 36,000  Level New York Center
Fri 01:27:20 PM 40.9122 -74.4642 230° Southwest 399 459 36,000  Level New York Center
Fri 01:28:18 PM 40.8397 -74.5836 231° Southwest 422 486 36,000  Level New York Center
Fri 01:29:18 PM 40.7606 -74.7106 231° Southwest 432 497 36,000  Level New York Center
Fri 01:30:19 PM 40.6792 -74.8347 229° Southwest 444 511 36,000  Level New York Center
Fri 01:31:22 PM 40.6017 -74.9639 232° Southwest 449 517 36,000  Level New York Center
Fri 01:32:19 PM 40.5222 -75.0903 230° Southwest 462 532 36,000  Level New York Center
Fri 01:33:20 PM 40.4403 -75.2214 231° Southwest 462 532 36,000  Level New York Center
Fri 01:34:20 PM 40.3603 -75.3497 231° Southwest 457 526 36,000  Level New York Center
Fri 01:35:21 PM 40.2739 -75.4800 229° Southwest 457 526 36,000  Level New York Center
Fri 01:36:18 PM 40.1997 -75.6108 233° Southwest 457 526 36,000  Level New York Center
Fri 01:37:18 PM 40.1292 -75.7525 237° Southwest 457 526 36,000  Level New York Center
Fri 01:38:18 PM 40.0564 -75.8939 236° Southwest 470 541 36,000  Level New York Center
Fri 01:39:19 PM 39.9878 -76.0325 237° Southwest 470 541 36,000  Level New York Center
Fri 01:40:20 PM 39.9189 -76.1708 237° Southwest 464 534 36,000  Level New York Center
Fri 01:41:20 PM 39.8575 -76.2822 234° Southwest 469 540 36,000  Level New York Center
Fri 01:42:32 PM 39.7439 -76.4606 230° Southwest 471 542 36,000  Level Washington Center
Fri 01:43:32 PM 39.6533 -76.5861 227° Southwest 471 542 36,000  Level Washington Center
Fri 01:44:30 PM 39.5667 -76.7114 228° Southwest 476 548 36,000  Level Washington Center
Fri 01:45:30 PM 39.4822 -76.8392 229° Southwest 476 548 36,000  Level Washington Center
Fri 01:46:31 PM 39.3994 -76.9639 229° Southwest 476 548 36,000  Level Washington Center
Fri 01:47:32 PM 39.3125 -77.0911 229° Southwest 476 548 36,000  Level Washington Center
Fri 01:48:32 PM 39.2275 -77.2181 229° Southwest 476 548 36,000  Level Washington Center
Fri 01:49:32 PM 39.1425 -77.3419 229° Southwest 476 548 36,000  Level Washington Center
Fri 01:50:30 PM 39.0550 -77.4681 228° Southwest 476 548 36,000 34 Level Washington Center
Fri 01:52:31 PM 38.8800 -77.7194 228° Southwest 477 549 36,100  Climbing Washington Center
Fri 01:53:31 PM 38.8008 -77.8344 229° Southwest 482 555 36,000 -50 Descending Washington Center
Fri 01:54:32 PM 38.7150 -77.9622 229° Southwest 477 549 36,000  Level Washington Center
Fri 01:55:33 PM 38.6292 -78.0817 227° Southwest 477 549 36,000  Level Washington Center
Fri 01:56:30 PM 38.5431 -78.2064 229° Southwest 477 549 36,000  Level Washington Center
Fri 01:57:30 PM 38.4569 -78.3278 228° Southwest 477 549 36,000  Level Washington Center
Fri 01:58:31 PM 38.3706 -78.4519 228° Southwest 477 549 36,000  Level Washington Center
Fri 01:59:32 PM 38.2842 -78.5756 228° Southwest 477 549 36,000  Level Washington Center
Fri 02:00:30 PM 38.2042 -78.6939 229° Southwest 471 542 36,000  Level Washington Center
Fri 02:01:31 PM 38.1197 -78.8144 228° Southwest 471 542 36,000  Level Washington Center
Fri 02:02:32 PM 38.0242 -78.9447 227° Southwest 465 535 36,000  Level Washington Center
Fri 02:03:32 PM 37.9417 -79.0597 228° Southwest 458 527 36,000  Level Washington Center
Fri 02:04:30 PM 37.8592 -79.1742 228° Southwest 452 520 36,000  Level Washington Center
Fri 02:05:30 PM 37.7764 -79.2886 228° Southwest 452 520 36,000  Level Washington Center
Fri 02:06:31 PM 37.6936 -79.4000 227° Southwest 447 514 36,000  Level Washington Center
Fri 02:07:32 PM 37.6128 -79.5139 228° Southwest 447 514 36,000  Level Washington Center
Fri 02:08:33 PM 37.5297 -79.6275 227° Southwest 452 520 36,000  Level Washington Center
Fri 02:09:30 PM 37.4489 -79.7356 227° Southwest 447 514 36,000  Level Washington Center
Fri 02:10:32 PM 37.3719 -79.8439 228° Southwest 456 525 36,000  Level Washington Center
Fri 02:11:32 PM 37.2889 -79.9542 227° Southwest 451 519 36,000  Level Washington Center
Fri 02:13:06 PM 37.1494 -80.1381 226° Southwest 447 514 36,000  Level Atlanta Center
Fri 02:14:06 PM 37.0556 -80.2650 227° Southwest 452 520 36,000  Level Atlanta Center
Fri 02:15:06 PM 36.9692 -80.3808 227° Southwest 452 520 36,000  Level Atlanta Center
Fri 02:16:06 PM 36.8811 -80.4992 227° Southwest 457 526 36,000  Level Atlanta Center
Fri 02:17:06 PM 36.7986 -80.6039 225° Southwest 462 532 36,000  Level Atlanta Center
Fri 02:18:06 PM 36.7061 -80.7297 228° Southwest 457 526 36,000  Level Atlanta Center
Fri 02:19:06 PM 36.6175 -80.8497 227° Southwest 468 539 36,000 50 Level Atlanta Center
Fri 02:20:06 PM 36.5286 -80.9669 227° Southwest 468 539 36,100  Climbing Atlanta Center
Fri 02:21:06 PM 36.4358 -81.0892 227° Southwest 468 539 36,000 -50 Descending Atlanta Center
Fri 02:22:06 PM 36.3469 -81.2083 227° Southwest 474 545 36,000  Level Atlanta Center
Fri 02:23:06 PM 36.2578 -81.3275 227° Southwest 474 545 36,000 50 Level Atlanta Center
Fri 02:24:06 PM 36.1664 -81.4461 226° Southwest 474 545 36,100 -400 Climbing Atlanta Center
Fri 02:25:06 PM 36.0853 -81.5517 226° Southwest 474 545 35,200 -950 Descending Atlanta Center
Fri 02:26:06 PM 35.9897 -81.6778 227° Southwest 490 564 34,200 -1,250 Descending Atlanta Center
Fri 02:27:06 PM 35.8981 -81.7958 226° Southwest 485 558 32,700 -1,100 Descending Atlanta Center
Fri 02:28:06 PM 35.8061 -81.9136 226° Southwest 485 558 32,000 -350 Descending Atlanta Center
Fri 02:29:06 PM 35.7183 -82.0233 225° Southwest 466 536 32,000  Level Atlanta Center
Fri 02:30:06 PM 35.6283 -82.1378 226° Southwest 466 536 32,000 -50 Level Atlanta Center
Fri 02:31:06 PM 35.5425 -82.2494 227° Southwest 461 531 31,900 -600 Descending Atlanta Center
Fri 02:32:06 PM 35.4503 -82.3639 225° Southwest 461 531 30,800 -1,150 Descending Atlanta Center
Fri 02:33:06 PM 35.3597 -82.4700 224° Southwest 461 531 29,600 -1,150 Descending Atlanta Center
Fri 02:34:06 PM 35.2672 -82.5711 222° Southwest 450 518 28,500 -1,000 Descending Atlanta Center
Fri 02:35:06 PM 35.1764 -82.6667 221° Southwest 445 512 27,600 -950 Descending Atlanta Center
Fri 02:36:06 PM 35.0878 -82.7672 223° Southwest 438 504 26,600 -1,000 Descending Atlanta Center
Fri 02:37:06 PM 34.9950 -82.8675 222° Southwest 438 504 25,600 -1,050 Descending Atlanta Center
Fri 02:38:06 PM 34.8956 -82.9650 219° Southwest 433 498 24,500 -1,050 Descending Atlanta Center
Fri 02:39:06 PM 34.8089 -83.0672 224° Southwest 427 491 23,500 -1,000 Descending Atlanta Center
Fri 02:40:06 PM 34.7219 -83.1619 222° Southwest 427 491 22,500 -750 Descending Atlanta Center
Fri 02:41:06 PM 34.6350 -83.2561 222° Southwest 427 491 22,000 -133 Descending Atlanta Center
Fri 02:43:06 PM 34.4586 -83.4467 222° Southwest 434 499 22,100 -600 Climbing Atlanta Center
Fri 02:44:06 PM 34.3714 -83.5381 221° Southwest 428 493 20,200 -2,150 Descending Atlanta Center
Fri 02:45:06 PM 34.2861 -83.6289 221° Southwest 413 475 17,800 -2,300 Descending Atlanta Center
Fri 02:46:06 PM 34.2028 -83.7172 221° Southwest 405 466 15,600 -1,450 Descending Atlanta Center
Fri 02:47:06 PM 34.1322 -83.7928 222° Southwest 400 460 14,900 -800 Descending Atlanta Center
Fri 02:48:06 PM 34.0675 -83.8658 223° Southwest 352 405 14,000 -450 Descending Atlanta Center
Fri 02:49:06 PM 34.0008 -83.9336 220° Southwest 322 371 14,000 -132 Level Atlanta Center
Fri 02:50:22 PM 33.9167 -84.0333 225° Southwest 311 358 13,700 -700 Descending Atlanta TRACON
Fri 02:51:06 PM 33.8736 -84.0714 216° Southwest 312 359 12,600 -1,500 Descending Atlanta Center
Fri 02:52:06 PM 33.8067 -84.1464 223° Southwest 312 359 11,100 -800 Descending Atlanta Center
Fri 02:53:06 PM 33.7483 -84.2061 220° Southwest 296 341 11,000 -50 Descending Atlanta Center
Fri 02:54:06 PM 33.7042 -84.2711 231° Southwest 274 315 11,000  Level Atlanta Center
Fri 02:55:06 PM 33.6750 -84.3408 243° Southwest 254 292 11,000 -353 Level Atlanta Center
Fri 02:56:22 PM 33.6667 -84.4500 265° West 283 326 10,200 -1,191 Descending Atlanta TRACON
Fri 02:57:22 PM 33.6833 -84.5333 284° West 244 281 8,300 -1,750 Descending Atlanta TRACON
Fri 02:58:22 PM 33.7000 -84.6000 287° West 232 267 6,700 -1,600 Descending Atlanta TRACON
Fri 02:59:22 PM 33.7167 -84.6833 284° West 235 270 5,100 -895 Descending Atlanta TRACON
Fri 03:00:16 PM 33.7333 -84.7500 287° West 235 270 5,000 -53 Descending Atlanta TRACON
Fri 03:01:16 PM 33.7333 -84.8333 270° West 225 259 5,000  Level Atlanta TRACON
Fri 03:02:16 PM 33.7000 -84.8833 231° Southwest 241 277 5,000  Level Atlanta TRACON
Fri 03:03:22 PM 33.6500 -84.8500 151° Southeast 236 272 5,000  Level Atlanta TRACON
Fri 03:04:17 PM 33.6500 -84.7833 90° East 234 269 5,000  Level Atlanta TRACON
Fri 03:05:16 PM 33.6500 -84.7000 90° East 236 272 5,000 -555 Level Atlanta TRACON
Fri 03:06:16 PM 33.6500 -84.6167 90° East 230 265 3,900 -1,100 Descending Atlanta TRACON
Fri 03:07:16 PM 33.6500 -84.5500 90° East 201 231 2,800 -947 Descending Atlanta TRACON
Fri 03:08:10 PM 33.6500 -84.5000 90° East 168 193 2,100 -789 Descending Atlanta TRACON
Fri 03:09:10 PM 33.6500 -84.4500 90° East 148 170 1,300 -800 Descending Atlanta TRACON
Fri 03:11:00 PM 33.6367 -84.4279 64° Northeast  Level Estimated
Fri 03:18:00 PM 33.6367 -84.4279 64° Northeast  Level Estimated

Login

Don't have an account? Register now (free) for customized features, flight alerts, and more!